Time;durP1;ratioP1;P1;durP2;ratioP2;P2;SDS_P1;SDS_P2;PMS_P1;PMS_P2;Temp;Humidity;BMP_temperature;BMP_pressure;BME280_temperature;BME280_humidity;BME280_pressure;Samples;Min_cycle;Max_cycle;Signal;HPM_P1;HPM_P2
2023/09/25 00:00:34;;;;;;;0.00;0.00;;;13.00;99.90;;;;;;5125901;27;20039;-73
2023/09/25 00:03:01;;;;;;;0.55;0.40;;;13.00;99.90;;;;;;5126777;27;20092;-73
2023/09/25 00:05:28;;;;;;;1.65;0.35;;;12.90;99.90;;;;;;5129454;27;20083;-73
2023/09/25 00:07:54;;;;;;;0.00;0.00;;;14.40;99.90;;;;;;5128665;27;20503;-73
2023/09/25 00:10:20;;;;;;;0.00;0.00;;;13.10;99.90;;;;;;5125902;27;20032;-72
2023/09/25 00:12:46;;;;;;;0.10;0.10;;;13.20;99.90;;;;;;5130285;27;20043;-73
2023/09/25 00:15:12;;;;;;;0.10;0.10;;;13.30;99.90;;;;;;5128998;27;20039;-73
2023/09/25 00:17:37;;;;;;;0.00;0.00;;;13.30;99.90;;;;;;5128749;27;20058;-72
2023/09/25 00:20:04;;;;;;;0.20;0.20;;;13.40;99.90;;;;;;5128479;27;20054;-74
2023/09/25 00:22:30;;;;;;;0.10;0.08;;;13.60;99.90;;;;;;5122798;27;20047;-72
2023/09/25 00:24:57;;;;;;;0.28;0.10;;;13.50;99.90;;;;;;5123278;27;20151;-73
2023/09/25 00:27:23;;;;;;;0.08;0.08;;;13.60;99.90;;;;;;5126793;27;20039;-73
2023/09/25 00:29:49;;;;;;;0.20;0.20;;;13.60;99.90;;;;;;5124341;27;20054;-73
2023/09/25 00:32:15;;;;;;;0.20;0.17;;;13.60;99.90;;;;;;5124344;27;20420;-73
2023/09/25 00:34:40;;;;;;;0.32;0.20;;;13.60;99.90;;;;;;5116889;27;20070;-73
2023/09/25 00:37:07;;;;;;;0.28;0.20;;;13.60;99.90;;;;;;5125166;27;20035;-73
2023/09/25 00:39:33;;;;;;;0.30;0.30;;;13.70;99.90;;;;;;5126452;27;20497;-73
2023/09/25 00:41:59;;;;;;;0.00;0.00;;;13.40;99.90;;;;;;5126435;27;20092;-73
2023/09/25 00:44:24;;;;;;;0.28;0.28;;;13.40;99.90;;;;;;5124927;27;20040;-73
2023/09/25 00:46:50;;;;;;;0.10;0.10;;;13.40;99.90;;;;;;5125006;27;20058;-72
2023/09/25 00:49:17;;;;;;;0.00;0.00;;;13.40;99.90;;;;;;5125080;27;20035;-72
2023/09/25 00:51:44;;;;;;;0.00;0.00;;;13.40;99.90;;;;;;5131661;27;20054;-72
2023/09/25 00:54:11;;;;;;;0.25;0.15;;;14.60;99.90;;;;;;5128038;27;20066;-73
2023/09/25 00:56:37;;;;;;;0.00;0.00;;;13.30;99.90;;;;;;5128015;27;20083;-73
2023/09/25 00:59:03;;;;;;;0.10;0.10;;;13.20;99.90;;;;;;5124629;27;20032;-72
2023/09/25 01:01:29;;;;;;;0.60;0.40;;;13.30;99.90;;;;;;5126949;27;20050;-72
2023/09/25 01:03:55;;;;;;;0.17;0.10;;;13.20;99.90;;;;;;5122516;27;20066;-73
2023/09/25 01:06:21;;;;;;;0.47;0.10;;;13.30;99.90;;;;;;5124494;27;20131;-72
2023/09/25 01:08:46;;;;;;;0.15;0.10;;;13.30;99.90;;;;;;5122524;27;20035;-72
2023/09/25 01:11:12;;;;;;;0.00;0.00;;;13.10;99.90;;;;;;5123819;27;20039;-73
2023/09/25 01:13:38;;;;;;;0.00;0.00;;;13.00;99.90;;;;;;5127542;27;20495;-73
2023/09/25 01:16:04;;;;;;;1.27;0.20;;;12.90;99.90;;;;;;5126662;27;20035;-74
2023/09/25 01:18:29;;;;;;;0.05;0.05;;;12.80;99.90;;;;;;5123909;27;20040;-73
2023/09/25 01:20:55;;;;;;;0.20;0.20;;;12.80;99.90;;;;;;5124454;27;20047;-73
2023/09/25 01:23:21;;;;;;;0.30;0.30;;;12.70;99.90;;;;;;5126520;27;20036;-73
2023/09/25 01:25:46;;;;;;;0.47;0.32;;;12.80;99.90;;;;;;5127499;27;20392;-72
2023/09/25 01:28:12;;;;;;;0.10;0.10;;;12.70;99.90;;;;;;5125343;27;20036;-72
2023/09/25 01:30:38;;;;;;;0.10;0.10;;;12.70;99.90;;;;;;5121000;27;20042;-72
2023/09/25 01:33:04;;;;;;;0.00;0.00;;;12.70;99.90;;;;;;5124244;27;20052;-72
2023/09/25 01:35:30;;;;;;;2.65;1.30;;;12.80;99.90;;;;;;5123940;27;20118;-73
2023/09/25 01:37:57;;;;;;;0.38;0.35;;;12.80;99.90;;;;;;5124293;27;20503;-73
2023/09/25 01:40:24;;;;;;;0.00;0.00;;;12.60;99.90;;;;;;5123426;27;20044;-72
2023/09/25 01:42:49;;;;;;;0.20;0.20;;;12.60;99.90;;;;;;5126934;27;20047;-72
2023/09/25 01:45:17;;;;;;;0.52;0.17;;;12.60;99.90;;;;;;5126977;27;20534;-73
2023/09/25 01:47:49;;;;;;;0.00;0.00;;;12.70;99.90;;;;;;5125324;27;20075;-74
2023/09/25 01:50:19;;;;;;;0.13;0.10;;;12.50;99.90;;;;;;5122981;27;20079;-72
2023/09/25 01:52:47;;;;;;;0.10;0.10;;;12.40;99.90;;;;;;5124790;27;20440;-72
2023/09/25 01:55:14;;;;;;;0.15;0.08;;;12.40;99.90;;;;;;5126993;27;20500;-72
2023/09/25 01:57:39;;;;;;;0.10;0.10;;;12.40;99.90;;;;;;5126644;27;20139;-72
2023/09/25 02:00:09;;;;;;;0.00;0.00;;;12.50;99.90;;;;;;5122844;27;20075;-72
2023/09/25 02:02:40;;;;;;;0.10;0.10;;;12.40;99.90;;;;;;5123571;27;20473;-73
2023/09/25 02:05:06;;;;;;;0.22;0.22;;;12.40;99.90;;;;;;5126420;27;20051;-73
2023/09/25 02:07:32;;;;;;;0.40;0.17;;;12.40;99.90;;;;;;5126695;27;20039;-73
2023/09/25 02:09:59;;;;;;;0.52;0.30;;;12.30;99.90;;;;;;5119834;27;20075;-73
2023/09/25 02:12:24;;;;;;;1.67;0.63;;;12.30;99.90;;;;;;5123241;27;20066;-71
2023/09/25 02:14:54;;;;;;;0.80;0.60;;;12.40;99.90;;;;;;5123534;28;20035;-72
2023/09/25 02:17:20;;;;;;;0.90;0.25;;;12.30;99.90;;;;;;5126420;28;20042;-72
2023/09/25 02:19:46;;;;;;;0.00;0.00;;;12.20;99.90;;;;;;5126331;27;20043;-76
2023/09/25 02:22:12;;;;;;;12.30;0.30;;;12.20;1.00;;;;;;5125481;28;20549;-73
2023/09/25 02:24:39;;;;;;;0.00;0.00;;;12.20;1.00;;;;;;5122036;28;20043;-73
2023/09/25 02:27:05;;;;;;;0.08;0.08;;;12.00;1.00;;;;;;5123323;28;20405;-73
2023/09/25 02:29:31;;;;;;;0.08;0.08;;;12.10;1.00;;;;;;5130499;27;20048;-72
2023/09/25 02:31:56;;;;;;;0.30;0.10;;;12.20;1.00;;;;;;5123315;28;20099;-72
2023/09/25 02:34:22;;;;;;;0.28;0.17;;;13.40;1.00;;;;;;5124076;27;20075;-72
2023/09/25 02:36:48;;;;;;;0.15;0.15;;;12.00;1.00;;;;;;5122178;28;20036;-74
2023/09/25 02:39:15;;;;;;;0.20;0.13;;;12.10;1.00;;;;;;5123049;28;20036;-73
2023/09/25 02:41:40;;;;;;;0.00;0.00;;;12.10;1.00;;;;;;5125884;28;20043;-73
2023/09/25 02:44:06;;;;;;;0.10;0.05;;;12.10;1.00;;;;;;5129126;27;20043;-73
2023/09/25 02:46:32;;;;;;;0.00;0.00;;;12.10;1.00;;;;;;5122814;27;20035;-72
2023/09/25 02:48:58;;;;;;;0.10;0.10;;;12.10;1.00;;;;;;5126375;27;20035;-75
2023/09/25 02:51:23;;;;;;;0.05;0.05;;;12.00;1.00;;;;;;5126007;28;20128;-73
2023/09/25 02:53:50;;;;;;;0.43;0.43;;;12.20;1.00;;;;;;5126631;27;20156;-73
2023/09/25 02:56:16;;;;;;;0.00;0.00;;;12.00;1.00;;;;;;5133028;27;20484;-72
2023/09/25 02:58:42;;;;;;;0.00;0.00;;;12.10;1.00;;;;;;5126955;27;20130;-73
2023/09/25 03:01:08;;;;;;;0.00;0.00;;;12.10;1.00;;;;;;5130502;27;20059;-73
2023/09/25 03:03:33;;;;;;;0.30;0.20;;;12.00;1.00;;;;;;5130257;27;20031;-72
2023/09/25 03:05:59;;;;;;;0.20;0.20;;;12.00;1.00;;;;;;5121470;27;20047;-74
2023/09/25 03:08:25;;;;;;;0.00;0.00;;;11.90;1.00;;;;;;5129955;27;20039;-73
2023/09/25 03:10:51;;;;;;;0.10;0.10;;;12.00;1.00;;;;;;5129945;27;20046;-72
2023/09/25 03:13:16;;;;;;;0.20;0.20;;;11.80;1.00;;;;;;5126458;27;20040;-72
2023/09/25 03:15:42;;;;;;;0.32;0.20;;;11.80;1.00;;;;;;5129605;27;20408;-73
2023/09/25 03:18:09;;;;;;;0.15;0.15;;;11.80;1.00;;;;;;5128150;27;20114;-72
2023/09/25 03:20:35;;;;;;;0.00;0.00;;;11.80;1.00;;;;;;5126399;27;20551;-73
2023/09/25 03:23:00;;;;;;;0.22;0.22;;;11.80;4.50;;;;;;5126316;27;20142;-72
2023/09/25 03:25:26;;;;;;;0.00;0.00;;;11.70;69.20;;;;;;5128840;27;20088;-72
2023/09/25 03:27:52;;;;;;;0.00;0.00;;;13.00;40.80;;;;;;5129778;27;20039;-72
2023/09/25 03:30:17;;;;;;;0.47;0.47;;;11.70;87.00;;;;;;5128771;27;20520;-72
2023/09/25 03:32:44;;;;;;;0.10;0.10;;;11.70;77.50;;;;;;5126180;27;20039;-72
2023/09/25 03:35:10;;;;;;;0.00;0.00;;;11.70;91.90;;;;;;5130046;27;20039;-72
2023/09/25 03:37:36;;;;;;;0.10;0.10;;;11.70;99.90;;;;;;5120439;27;20416;-72
2023/09/25 03:40:07;;;;;;;0.43;0.43;;;11.70;99.90;;;;;;5129425;27;20118;-72
2023/09/25 03:42:34;;;;;;;0.00;0.00;;;11.60;99.90;;;;;;5129317;27;20086;-72
2023/09/25 03:45:00;;;;;;;0.00;0.00;;;11.70;99.90;;;;;;5125527;27;20104;-72
2023/09/25 03:47:25;;;;;;;0.20;0.13;;;11.60;99.90;;;;;;5123348;27;20498;-72
2023/09/25 03:49:51;;;;;;;0.57;0.20;;;11.70;99.90;;;;;;5125992;27;20051;-72
2023/09/25 03:52:17;;;;;;;0.28;0.28;;;11.70;99.90;;;;;;5125804;27;20047;-73
2023/09/25 03:54:42;;;;;;;0.60;0.52;;;11.90;42.00;;;;;;5125686;27;20091;-72
2023/09/25 03:57:08;;;;;;;0.52;0.43;;;11.80;79.60;;;;;;5119090;27;20043;-72
2023/09/25 03:59:33;;;;;;;0.20;0.20;;;11.80;64.00;;;;;;5126094;27;20070;-73
2023/09/25 04:01:59;;;;;;;4.20;1.77;;;11.80;37.00;;;;;;5128371;27;20047;-73
2023/09/25 04:04:25;;;;;;;1.10;0.52;;;11.80;17.50;;;;;;5127815;27;20039;-72
2023/09/25 04:06:50;;;;;;;3.63;0.50;;;11.80;27.60;;;;;;5103950;27;20040;-72
2023/09/25 04:09:16;;;;;;;0.08;0.00;;;11.80;59.90;;;;;;5134221;27;20040;-72
2023/09/25 04:11:41;;;;;;;0.57;0.47;;;11.80;28.90;;;;;;5125927;27;20043;-72
2023/09/25 04:14:07;;;;;;;0.10;0.10;;;11.80;37.10;;;;;;5127629;27;20048;-73
2023/09/25 04:16:35;;;;;;;0.00;0.00;;;11.90;1.00;;;;;;5125669;27;20036;-72
2023/09/25 04:19:04;;;;;;;0.00;0.00;;;12.00;1.00;;;;;;5125026;27;20035;-72
2023/09/25 04:21:31;;;;;;;0.10;0.10;;;12.00;1.00;;;;;;5128546;27;20073;-72
2023/09/25 04:23:57;;;;;;;0.20;0.10;;;12.10;1.00;;;;;;5128461;27;20054;-73
2023/09/25 04:26:23;;;;;;;0.05;0.05;;;12.00;1.00;;;;;;5125183;27;20484;-73
2023/09/25 04:28:49;;;;;;;0.00;0.00;;;12.00;1.00;;;;;;5125318;27;20036;-72
2023/09/25 04:31:15;;;;;;;0.20;0.20;;;11.90;1.00;;;;;;5124694;27;20059;-73
2023/09/25 04:33:40;;;;;;;4.05;0.57;;;11.90;1.00;;;;;;5128534;27;20081;-73
2023/09/25 04:36:10;;;;;;;0.35;0.22;;;12.00;1.00;;;;;;5108819;27;20501;-73
2023/09/25 04:38:36;;;;;;;0.03;0.03;;;11.80;1.00;;;;;;5127073;27;20044;-72
2023/09/25 04:41:01;;;;;;;0.43;0.35;;;12.00;1.00;;;;;;5128274;27;20412;-72
2023/09/25 04:43:27;;;;;;;0.10;0.10;;;11.90;1.00;;;;;;5124611;27;20044;-72
2023/09/25 04:45:55;;;;;;;0.90;0.60;;;11.90;1.00;;;;;;5128154;27;20059;-72
2023/09/25 04:48:24;;;;;;;1.08;0.73;;;11.90;1.00;;;;;;5128102;27;20165;-73
2023/09/25 04:50:50;;;;;;;5.07;0.45;;;12.20;1.00;;;;;;5125146;27;20085;-73
2023/09/25 04:53:15;;;;;;;0.10;0.10;;;11.90;1.00;;;;;;5123785;27;20069;-72
2023/09/25 04:55:41;;;;;;;0.28;0.28;;;11.80;1.00;;;;;;5125816;27;20043;-73
2023/09/25 04:58:07;;;;;;;0.47;0.43;;;11.80;1.00;;;;;;5124051;27;20405;-72
2023/09/25 05:00:33;;;;;;;0.30;0.30;;;11.70;48.10;;;;;;5125125;27;20039;-72
2023/09/25 05:03:00;;;;;;;0.00;0.00;;;11.70;23.70;;;;;;5126427;27;20058;-73
2023/09/25 05:05:26;;;;;;;0.00;0.00;;;12.00;22.10;;;;;;5123208;27;20038;-73
2023/09/25 05:07:54;;;;;;;0.10;0.10;;;11.90;1.00;;;;;;5126588;27;20039;-73
2023/09/25 05:10:23;;;;;;;0.50;0.43;;;11.70;12.50;;;;;;5124520;27;20046;-73
2023/09/25 05:12:49;;;;;;;1.17;0.50;;;11.70;44.10;;;;;;5124342;27;20035;-73
2023/09/25 05:15:16;;;;;;;0.15;0.15;;;11.80;5.90;;;;;;5126385;27;20042;-73
2023/09/25 05:17:42;;;;;;;0.00;0.00;;;11.80;1.00;;;;;;5124423;27;20043;-73
2023/09/25 05:20:15;;;;;;;1.08;0.45;;;11.80;1.00;;;;;;5125997;27;20059;-73
2023/09/25 05:22:46;;;;;;;0.00;0.00;;;11.80;1.00;;;;;;5124287;27;20043;-73
2023/09/25 05:25:12;;;;;;;0.08;0.05;;;11.80;1.00;;;;;;5126345;27;20047;-73
2023/09/25 05:27:40;;;;;;;0.00;0.00;;;11.70;1.00;;;;;;5124519;27;20035;-74
2023/09/25 05:30:10;;;;;;;0.00;0.00;;;11.60;42.60;;;;;;5115421;28;20043;-73
2023/09/25 05:32:40;;;;;;;0.30;0.30;;;11.50;99.00;;;;;;5114372;27;20408;-73
2023/09/25 05:35:06;;;;;;;2.22;1.02;;;11.70;99.90;;;;;;5119707;27;20043;-73
2023/09/25 05:37:35;;;;;;;0.32;0.30;;;11.40;99.90;;;;;;5126184;27;20473;-73
2023/09/25 05:40:01;;;;;;;0.10;0.10;;;11.40;99.90;;;;;;5126447;27;20373;-73
2023/09/25 05:42:27;;;;;;;0.00;0.00;;;11.40;99.90;;;;;;5119310;27;20046;-73
2023/09/25 05:44:52;;;;;;;0.20;0.20;;;11.40;99.90;;;;;;5125532;27;20043;-73
2023/09/25 05:47:18;;;;;;;0.00;0.00;;;11.40;99.90;;;;;;5126592;27;20397;-73
2023/09/25 05:49:43;;;;;;;2.15;0.40;;;11.30;99.90;;;;;;5124358;27;20075;-73
2023/09/25 05:52:09;;;;;;;0.00;0.00;;;11.50;99.90;;;;;;5120908;27;20453;-73
2023/09/25 05:54:35;;;;;;;0.22;0.20;;;11.40;99.90;;;;;;5122328;27;20048;-73
2023/09/25 05:57:00;;;;;;;0.00;0.00;;;11.50;99.90;;;;;;5125130;27;20035;-73
2023/09/25 05:59:26;;;;;;;0.30;0.22;;;12.70;99.90;;;;;;5123526;27;20075;-73
2023/09/25 06:01:52;;;;;;;0.75;0.73;;;11.80;99.90;;;;;;5119475;27;20046;-73
2023/09/25 06:04:18;;;;;;;1.10;0.55;;;11.70;99.90;;;;;;5118986;27;20035;-73
2023/09/25 06:06:44;;;;;;;0.22;0.17;;;11.70;99.90;;;;;;5118676;27;20047;-73
2023/09/25 06:09:15;;;;;;;0.88;0.28;;;11.70;99.90;;;;;;5120238;27;20083;-73
2023/09/25 06:11:41;;;;;;;0.00;0.00;;;11.80;99.90;;;;;;5121138;27;20039;-73
2023/09/25 06:14:07;;;;;;;0.00;0.00;;;11.80;83.90;;;;;;5122470;27;20039;-73
2023/09/25 06:16:32;;;;;;;0.00;0.00;;;11.90;38.60;;;;;;5119031;27;20499;-73
2023/09/25 06:18:58;;;;;;;1.55;0.32;;;11.90;14.10;;;;;;5123879;27;20032;-73
2023/09/25 06:21:24;;;;;;;0.00;0.00;;;12.10;1.00;;;;;;5121477;27;20035;-73
2023/09/25 06:23:50;;;;;;;0.00;0.00;;;12.20;1.00;;;;;;5118953;28;20067;-73
2023/09/25 06:26:16;;;;;;;0.00;0.00;;;12.40;99.90;;;;;;5121282;28;20113;-73
2023/09/25 06:28:42;;;;;;;0.08;0.08;;;12.30;99.90;;;;;;5122043;27;20137;-73
2023/09/25 06:31:08;;;;;;;0.00;0.00;;;12.40;99.90;;;;;;5123356;27;20039;-73
2023/09/25 06:33:33;;;;;;;0.10;0.10;;;12.50;99.90;;;;;;5116222;27;20487;-73
2023/09/25 06:35:59;;;;;;;0.00;0.00;;;12.60;99.90;;;;;;5123210;27;20442;-73
2023/09/25 06:38:25;;;;;;;0.13;0.10;;;12.70;99.90;;;;;;5113769;28;20401;-73
2023/09/25 06:40:51;;;;;;;0.10;0.10;;;12.70;99.90;;;;;;5108268;28;20039;-73
2023/09/25 06:43:16;;;;;;;0.08;0.05;;;12.80;99.90;;;;;;5115855;28;20043;-73
2023/09/25 06:45:43;;;;;;;0.22;0.20;;;13.00;99.90;;;;;;5124047;28;20050;-73
2023/09/25 06:48:08;;;;;;;0.10;0.10;;;12.80;99.90;;;;;;5122103;27;20040;-73
2023/09/25 06:50:35;;;;;;;0.00;0.00;;;13.00;99.90;;;;;;5122206;28;20047;-73
2023/09/25 06:53:02;;;;;;;0.10;0.10;;;13.20;99.90;;;;;;5123997;27;20806;-73
2023/09/25 06:55:27;;;;;;;0.20;0.10;;;13.20;99.90;;;;;;5124730;27;20039;-73
2023/09/25 06:57:53;;;;;;;0.38;0.30;;;13.40;99.90;;;;;;5122254;28;20494;-73
2023/09/25 07:00:19;;;;;;;0.40;0.20;;;13.50;99.90;;;;;;5121469;28;20039;-73
2023/09/25 07:02:45;;;;;;;0.00;0.00;;;13.40;99.90;;;;;;5122378;28;20043;-73
2023/09/25 07:05:11;;;;;;;0.10;0.10;;;13.40;99.90;;;;;;5115662;27;20388;-73
2023/09/25 07:07:37;;;;;;;0.00;0.00;;;13.70;99.90;;;;;;5118337;27;20115;-73
2023/09/25 07:10:09;;;;;;;0.00;0.00;;;13.70;99.90;;;;;;5118744;28;20051;-73
2023/09/25 07:12:35;;;;;;;0.10;0.10;;;13.70;99.90;;;;;;5118347;28;20048;-73
2023/09/25 07:15:02;;;;;;;0.70;0.55;;;13.80;99.90;;;;;;5119402;28;20110;-73
2023/09/25 07:17:28;;;;;;;0.20;0.20;;;13.80;99.90;;;;;;5112240;28;20144;-73
2023/09/25 07:19:55;;;;;;;0.43;0.10;;;13.80;99.90;;;;;;5126251;28;20508;-73
2023/09/25 07:22:22;;;;;;;0.10;0.10;;;13.80;99.90;;;;;;5117415;27;20047;-73
2023/09/25 07:24:48;;;;;;;0.10;0.10;;;13.90;99.90;;;;;;5116643;28;20079;-73
2023/09/25 07:27:15;;;;;;;0.40;0.40;;;14.00;99.90;;;;;;5119414;28;20040;-73
2023/09/25 07:29:44;;;;;;;1.75;0.55;;;14.20;99.90;;;;;;5121134;27;20043;-73
2023/09/25 07:32:11;;;;;;;0.45;0.35;;;14.30;99.90;;;;;;5119607;27;20244;-73
2023/09/25 07:34:38;;;;;;;0.10;0.10;;;14.50;99.90;;;;;;5119922;28;20035;-73
2023/09/25 07:37:05;;;;;;;0.68;0.13;;;14.40;99.90;;;;;;5108757;27;20044;-73
2023/09/25 07:39:33;;;;;;;0.50;0.30;;;14.50;99.90;;;;;;5120152;27;20074;-73
2023/09/25 07:41:59;;;;;;;0.00;0.00;;;14.60;99.90;;;;;;5124825;27;20118;-73
2023/09/25 07:44:27;;;;;;;2.90;0.20;;;14.60;99.90;;;;;;5122110;27;20122;-73
2023/09/25 07:46:54;;;;;;;0.00;0.00;;;14.70;99.90;;;;;;5124928;27;20074;-73
2023/09/25 07:49:23;;;;;;;0.10;0.10;;;14.80;99.90;;;;;;5124816;27;20407;-73
2023/09/25 07:51:49;;;;;;;0.00;0.00;;;14.90;99.90;;;;;;5119263;27;20370;-73
2023/09/25 07:54:15;;;;;;;1.33;0.65;;;15.10;99.90;;;;;;5121315;27;20121;-73
2023/09/25 07:56:41;;;;;;;0.00;0.00;;;15.10;99.90;;;;;;5122083;27;20035;-73
2023/09/25 07:59:08;;;;;;;0.25;0.15;;;15.30;99.90;;;;;;5124424;27;20089;-73
2023/09/25 08:01:34;;;;;;;5.20;1.10;;;15.50;99.90;;;;;;5123751;27;20039;-73
2023/09/25 08:04:00;;;;;;;0.00;0.00;;;15.70;99.90;;;;;;5121580;27;20091;-73
2023/09/25 08:06:27;;;;;;;1.85;0.22;;;15.80;99.90;;;;;;5120815;27;20038;-73
2023/09/25 08:08:53;;;;;;;0.55;0.38;;;16.00;99.90;;;;;;5122099;27;20050;-73
2023/09/25 08:11:19;;;;;;;0.00;0.00;;;16.10;99.90;;;;;;5123525;27;20154;-73
2023/09/25 08:13:44;;;;;;;0.13;0.10;;;16.40;99.90;;;;;;5123843;27;20118;-73
2023/09/25 08:16:10;;;;;;;0.00;0.00;;;16.40;99.90;;;;;;5121340;27;20031;-73
2023/09/25 08:18:36;;;;;;;0.05;0.05;;;16.50;99.90;;;;;;5124108;27;20401;-73
2023/09/25 08:21:04;;;;;;;0.20;0.20;;;16.50;99.90;;;;;;5115890;27;20085;-73
2023/09/25 08:23:30;;;;;;;1.10;0.32;;;16.60;99.90;;;;;;5121724;27;20035;-74
2023/09/25 08:25:56;;;;;;;0.10;0.10;;;16.70;99.90;;;;;;5120560;27;20101;-73
2023/09/25 08:28:22;;;;;;;0.40;0.13;;;16.70;99.90;;;;;;5122729;27;20042;-73
2023/09/25 08:30:47;;;;;;;0.03;0.03;;;16.80;99.90;;;;;;5118544;27;20035;-74
2023/09/25 08:33:15;;;;;;;0.00;0.00;;;16.90;99.90;;;;;;5120627;27;20043;-74
2023/09/25 08:35:43;;;;;;;0.00;0.00;;;16.90;99.90;;;;;;5124268;27;20047;-73
2023/09/25 08:38:09;;;;;;;0.20;0.20;;;17.20;99.90;;;;;;5123813;27;20055;-73
2023/09/25 08:40:38;;;;;;;0.13;0.10;;;17.20;99.90;;;;;;5120625;27;20549;-73
2023/09/25 08:43:05;;;;;;;0.98;0.52;;;17.20;97.30;;;;;;5120277;27;20055;-74
2023/09/25 08:45:32;;;;;;;0.28;0.15;;;17.20;94.70;;;;;;5121408;27;20367;-73
2023/09/25 08:47:57;;;;;;;0.13;0.10;;;17.40;99.90;;;;;;5123033;27;20046;-73
2023/09/25 08:50:24;;;;;;;1.10;0.68;;;17.50;95.80;;;;;;5121541;27;20043;-73
2023/09/25 08:52:50;;;;;;;0.03;0.03;;;17.60;95.20;;;;;;5122619;27;20043;-73
2023/09/25 08:55:16;;;;;;;0.05;0.05;;;17.70;78.10;;;;;;5123341;27;20523;-73
2023/09/25 08:57:42;;;;;;;0.25;0.15;;;17.60;87.70;;;;;;5121933;27;20051;-73
2023/09/25 09:00:11;;;;;;;0.00;0.00;;;17.80;87.40;;;;;;5116092;27;20383;-74
2023/09/25 09:02:40;;;;;;;0.20;0.20;;;17.80;94.00;;;;;;5123137;27;20580;-74
2023/09/25 09:05:07;;;;;;;1.35;0.40;;;18.10;94.90;;;;;;5111923;27;20481;-73
2023/09/25 09:07:33;;;;;;;2.10;0.30;;;18.20;93.30;;;;;;5119460;27;20374;-73
2023/09/25 09:09:59;;;;;;;0.40;0.10;;;18.50;95.20;;;;;;5121312;27;20043;-73
2023/09/25 09:12:25;;;;;;;0.45;0.40;;;18.90;99.90;;;;;;5122974;27;20536;-73
2023/09/25 09:14:50;;;;;;;0.28;0.10;;;19.30;98.40;;;;;;5122961;27;20184;-74
2023/09/25 09:17:16;;;;;;;0.00;0.00;;;19.30;96.00;;;;;;5118994;27;20036;-74
2023/09/25 09:19:48;;;;;;;0.40;0.30;;;19.30;91.90;;;;;;5106935;27;20066;-74
2023/09/25 09:22:16;;;;;;;0.00;0.00;;;19.00;73.40;;;;;;5121676;27;20130;-74
2023/09/25 09:24:43;;;;;;;0.00;0.00;;;18.70;67.10;;;;;;5122871;27;20035;-73
2023/09/25 09:27:11;;;;;;;0.38;0.32;;;18.70;62.70;;;;;;5121227;27;20035;-73
2023/09/25 09:29:39;;;;;;;0.50;0.25;;;19.00;86.00;;;;;;5111745;27;20062;-74
2023/09/25 09:32:05;;;;;;;0.00;0.00;;;19.60;97.50;;;;;;5118868;27;20180;-73
2023/09/25 09:34:31;;;;;;;0.03;0.03;;;20.10;99.60;;;;;;5122119;27;20050;-74
2023/09/25 09:36:58;;;;;;;0.70;0.40;;;20.20;92.60;;;;;;5122057;27;20225;-74
2023/09/25 09:39:27;;;;;;;0.43;0.32;;;20.10;92.30;;;;;;5120971;27;20547;-73
2023/09/25 09:41:54;;;;;;;0.00;0.00;;;20.00;82.10;;;;;;5116888;27;20385;-73
2023/09/25 09:44:20;;;;;;;0.28;0.13;;;20.00;77.50;;;;;;5118328;27;20044;-73
2023/09/25 09:46:47;;;;;;;0.98;0.25;;;20.10;77.30;;;;;;5110977;27;20417;-74
2023/09/25 09:49:22;;;;;;;10.02;0.17;;;20.10;60.50;;;;;;5118380;27;20088;-74
2023/09/25 09:51:50;;;;;;;0.38;0.38;;;20.20;63.30;;;;;;5121547;27;20110;-73
2023/09/25 09:54:18;;;;;;;0.70;0.28;;;20.20;61.40;;;;;;5120721;27;20043;-74
2023/09/25 09:56:47;;;;;;;1.10;0.43;;;20.20;70.30;;;;;;5120157;27;20074;-73
2023/09/25 09:59:17;;;;;;;0.25;0.25;;;20.40;58.70;;;;;;5118267;27;20043;-74
2023/09/25 10:01:44;;;;;;;0.10;0.10;;;20.30;60.00;;;;;;5119506;27;20036;-74
2023/09/25 10:04:11;;;;;;;1.65;0.28;;;20.30;67.80;;;;;;5114303;27;20396;-74
2023/09/25 10:06:53;;;;;;;0.47;0.38;;;20.50;66.90;;;;;;5112270;27;20046;-74
2023/09/25 10:09:20;;;;;;;0.20;0.17;;;20.60;80.60;;;;;;5111168;27;20032;-74
2023/09/25 10:11:54;;;;;;;3.05;0.20;;;20.60;72.70;;;;;;5118530;27;20050;-74
2023/09/25 10:14:29;;;;;;;0.00;0.00;;;20.70;80.70;;;;;;5111773;27;20039;-74
2023/09/25 10:17:04;;;;;;;0.10;0.10;;;20.70;68.20;;;;;;5119289;27;20413;-74
2023/09/25 10:19:37;;;;;;;0.10;0.05;;;20.70;65.60;;;;;;5118808;27;20047;-74
2023/09/25 10:22:12;;;;;;;1.05;0.13;;;20.70;60.50;;;;;;5119552;28;20058;-74
2023/09/25 10:24:41;;;;;;;0.00;0.00;;;20.80;73.70;;;;;;5121942;27;20074;-74
2023/09/25 10:27:09;;;;;;;0.00;0.00;;;20.80;66.60;;;;;;5120964;27;20516;-74
2023/09/25 10:29:34;;;;;;;0.20;0.20;;;20.60;54.70;;;;;;5117717;28;20047;-74
2023/09/25 10:32:01;;;;;;;0.10;0.10;;;20.70;48.10;;;;;;5118330;28;20122;-74
2023/09/25 10:34:29;;;;;;;0.45;0.40;;;20.70;43.50;;;;;;5120726;28;20066;-74
2023/09/25 10:37:00;;;;;;;0.38;0.32;;;20.80;52.10;;;;;;5121879;27;20047;-74
2023/09/25 10:39:27;;;;;;;0.10;0.10;;;20.90;52.10;;;;;;5119264;28;20070;-74
2023/09/25 10:42:09;;;;;;;0.52;0.35;;;21.00;55.80;;;;;;5118462;28;20048;-74
2023/09/25 10:44:38;;;;;;;0.00;0.00;;;21.10;63.80;;;;;;5120718;28;20456;-74
2023/09/25 10:47:07;;;;;;;0.00;0.00;;;21.20;67.70;;;;;;5121582;27;20031;-75
2023/09/25 10:49:37;;;;;;;0.00;0.00;;;21.10;48.60;;;;;;5119667;27;20066;-74
2023/09/25 10:52:04;;;;;;;0.08;0.08;;;21.20;45.10;;;;;;5115013;28;20055;-74
2023/09/25 10:54:30;;;;;;;0.17;0.17;;;21.20;51.60;;;;;;5122602;27;20058;-74
2023/09/25 10:56:58;;;;;;;0.10;0.10;;;21.20;61.80;;;;;;5120163;28;20048;-74
2023/09/25 10:59:25;;;;;;;0.25;0.20;;;21.50;75.70;;;;;;5113676;28;20039;-74
2023/09/25 11:01:51;;;;;;;0.20;0.20;;;21.70;71.80;;;;;;5114820;27;20089;-74
2023/09/25 11:04:17;;;;;;;1.55;0.35;;;21.70;68.40;;;;;;5119227;28;20054;-74
2023/09/25 11:06:44;;;;;;;0.20;0.15;;;21.90;85.00;;;;;;5118912;28;20039;-74
2023/09/25 11:09:18;;;;;;;0.22;0.20;;;22.10;81.90;;;;;;5120986;27;20047;-74
2023/09/25 11:11:45;;;;;;;0.00;0.00;;;22.20;74.80;;;;;;5121327;27;20050;-74
2023/09/25 11:14:11;;;;;;;0.00;0.00;;;22.30;91.00;;;;;;5119755;27;20032;-74
2023/09/25 11:16:37;;;;;;;0.10;0.10;;;22.40;91.20;;;;;;5122046;27;20097;-74
2023/09/25 11:19:14;;;;;;;0.08;0.08;;;22.50;75.50;;;;;;5127300;27;20039;-74
2023/09/25 11:21:41;;;;;;;0.20;0.20;;;22.50;74.20;;;;;;5125320;27;20373;-74
2023/09/25 11:24:08;;;;;;;0.00;0.00;;;22.60;78.00;;;;;;5123725;27;20564;-74
2023/09/25 11:26:42;;;;;;;0.17;0.17;;;22.60;64.40;;;;;;5122085;27;20112;-74
2023/09/25 11:29:11;;;;;;;0.20;0.20;;;22.70;81.00;;;;;;5123124;27;20437;-74
2023/09/25 11:31:37;;;;;;;0.25;0.25;;;23.00;89.20;;;;;;5125112;27;20035;-74
2023/09/25 11:34:06;;;;;;;0.13;0.10;;;23.20;69.30;;;;;;5123395;27;20509;-74
2023/09/25 11:36:32;;;;;;;0.65;0.35;;;23.30;60.30;;;;;;5121555;27;20039;-74
2023/09/25 11:38:58;;;;;;;0.22;0.10;;;23.20;54.80;;;;;;5122688;27;20050;-74
2023/09/25 11:41:24;;;;;;;0.55;0.45;;;23.40;50.40;;;;;;5123565;27;20117;-74
2023/09/25 11:43:50;;;;;;;0.43;0.17;;;23.30;41.80;;;;;;5121604;27;20493;-74
2023/09/25 11:46:16;;;;;;;0.70;0.30;;;23.30;40.10;;;;;;5117804;27;20055;-74
2023/09/25 11:48:42;;;;;;;0.35;0.20;;;23.40;48.80;;;;;;5126018;27;20039;-74
2023/09/25 11:51:08;;;;;;;0.13;0.13;;;23.60;49.40;;;;;;5127205;27;20035;-74
2023/09/25 11:53:34;;;;;;;0.22;0.22;;;23.70;53.10;;;;;;5126379;27;20054;-74
2023/09/25 11:55:59;;;;;;;0.30;0.17;;;23.80;50.00;;;;;;5124071;27;20057;-74
2023/09/25 11:58:28;;;;;;;1.35;0.65;;;24.00;53.80;;;;;;5121244;27;20032;-74
2023/09/25 12:00:54;;;;;;;0.00;0.00;;;24.10;52.40;;;;;;5126305;27;20055;-74
2023/09/25 12:03:19;;;;;;;1.25;0.52;;;23.90;22.80;;;;;;5127452;27;20038;-74
2023/09/25 12:05:45;;;;;;;0.25;0.25;;;23.70;13.60;;;;;;5126231;27;20035;-74
2023/09/25 12:08:12;;;;;;;0.20;0.13;;;23.60;3.70;;;;;;5124022;27;20043;-74
2023/09/25 12:10:39;;;;;;;0.00;0.00;;;23.60;1.00;;;;;;5124353;27;20481;-74
2023/09/25 12:13:08;;;;;;;3.35;1.20;;;23.40;1.00;;;;;;5126502;27;20070;-73
2023/09/25 12:15:34;;;;;;;0.32;0.32;;;23.40;1.00;;;;;;5128247;27;20076;-74
2023/09/25 12:18:00;;;;;;;0.15;0.15;;;23.50;1.00;;;;;;5125426;27;20131;-74
2023/09/25 12:20:27;;;;;;;0.43;0.43;;;23.60;1.00;;;;;;5127300;27;20118;-74
2023/09/25 12:22:54;;;;;;;0.00;0.00;;;23.50;1.00;;;;;;5127433;27;20396;-74
2023/09/25 12:25:21;;;;;;;0.70;0.25;;;23.40;1.00;;;;;;5122609;27;20058;-74
2023/09/25 12:27:46;;;;;;;0.00;0.00;;;23.50;1.00;;;;;;5124067;27;20048;-74
2023/09/25 12:30:16;;;;;;;1.02;0.40;;;23.50;1.00;;;;;;5125337;27;20050;-74
2023/09/25 12:32:45;;;;;;;0.00;0.00;;;23.70;1.00;;;;;;5127257;27;20111;-74
2023/09/25 12:35:15;;;;;;;0.32;0.20;;;23.60;1.00;;;;;;5125984;27;20415;-74
2023/09/25 12:37:41;;;;;;;2.60;0.75;;;23.60;1.00;;;;;;5122776;27;20095;-74
2023/09/25 12:40:08;;;;;;;0.10;0.10;;;23.70;1.00;;;;;;5123786;27;20044;-74
2023/09/25 12:42:34;;;;;;;0.00;0.00;;;23.70;1.00;;;;;;5126199;27;20078;-73
2023/09/25 12:45:00;;;;;;;0.52;0.20;;;23.90;1.00;;;;;;5126216;27;20049;-74